Time;durP1;ratioP1;P1;durP2;ratioP2;P2;SDS_P1;SDS_P2;PMS_P1;PMS_P2;Temp;Humidity;BMP_temperature;BMP_pressure;BME280_temperature;BME280_humidity;BME280_pressure;Samples;Min_cycle;Max_cycle;Signal;HPM_P1;HPM_P2
2024/02/13 00:00:26;;;;;;;7.87;1.70;;;;;;;-145.69;60.26;52313.69;5112868;28;20221;-83
2024/02/13 00:02:53;;;;;;;3.47;1.73;;;;;;;-145.69;60.50;52309.72;5112748;28;20189;-83
2024/02/13 00:05:24;;;;;;;4.80;1.90;;;;;;;-145.69;61.06;52349.31;5113227;28;20209;-83
2024/02/13 00:07:53;;;;;;;6.80;1.90;;;;;;;-145.69;60.71;52345.38;5113123;28;20663;-83
2024/02/13 00:10:21;;;;;;;9.03;1.73;;;;;;;-145.69;61.06;52327.53;5112694;28;20193;-82
2024/02/13 00:12:48;;;;;;;2.60;1.47;;;;;;;-145.69;60.75;52329.53;5113210;28;20198;-83
2024/02/13 00:15:18;;;;;;;4.20;1.77;;;;;;;-145.69;60.44;52311.69;5112615;28;20541;-83
2024/02/13 00:17:45;;;;;;;6.93;1.93;;;;;;;-145.69;60.72;52321.59;5112806;28;20292;-82
2024/02/13 00:20:17;;;;;;;4.63;1.57;;;;;;;-145.69;60.44;52343.38;5112871;28;20225;-83
2024/02/13 00:22:47;;;;;;;4.43;1.80;;;;;;;-145.69;60.39;52309.72;5112761;28;20193;-83
2024/02/13 00:25:15;;;;;;;3.33;1.43;;;;;;;-145.69;60.40;52384.97;5113054;27;20551;-82
2024/02/13 00:27:42;;;;;;;10.23;1.80;;;;;;;-145.69;60.04;52388.94;5113199;27;20197;-83
2024/02/13 00:30:09;;;;;;;4.93;1.50;;;;;;;-145.69;60.51;52335.47;5113082;27;20556;-83
2024/02/13 00:32:41;;;;;;;3.17;1.50;;;;;;;-145.69;60.90;52339.44;5112569;28;20243;-82
2024/02/13 00:35:13;;;;;;;3.77;1.90;;;;;;;-145.69;60.92;52321.59;5112478;28;20251;-83
2024/02/13 00:37:43;;;;;;;3.87;1.40;;;;;;;-145.69;61.20;52345.38;5113014;28;20202;-83
2024/02/13 00:40:11;;;;;;;4.00;1.73;;;;;;;-145.69;61.32;52349.31;5112091;28;20762;-83
2024/02/13 00:42:38;;;;;;;5.67;2.03;;;;;;;-145.69;61.22;52351.31;5112473;28;20193;-82
2024/02/13 00:45:07;;;;;;;5.60;1.97;;;;;;;-145.69;61.49;52353.28;5112620;28;20719;-83
2024/02/13 00:47:34;;;;;;;7.07;1.93;;;;;;;-145.69;61.01;52331.50;5113210;28;20651;-83
2024/02/13 00:50:01;;;;;;;7.57;2.07;;;;;;;-145.69;61.23;52313.69;5116428;28;20667;-83
2024/02/13 00:52:28;;;;;;;10.00;2.30;;;;;;;-145.69;60.93;52337.44;5116090;28;20201;-82
2024/02/13 00:54:55;;;;;;;6.50;2.30;;;;;;;-145.69;60.99;52331.50;5116583;28;20585;-83
2024/02/13 00:57:23;;;;;;;5.23;1.80;;;;;;;-145.69;61.23;52351.31;5116476;28;20202;-83
2024/02/13 00:59:49;;;;;;;6.77;1.90;;;;;;;-145.69;61.33;52345.38;5116412;28;20228;-83
2024/02/13 01:02:17;;;;;;;6.83;2.10;;;;;;;-145.69;61.38;52341.41;5116218;28;20209;-83
2024/02/13 01:04:43;;;;;;;4.03;1.30;;;;;;;-145.69;61.14;52323.59;5116567;28;20233;-82
2024/02/13 01:07:10;;;;;;;4.70;1.83;;;;;;;-145.69;60.84;52357.25;5116288;28;20200;-84
2024/02/13 01:09:38;;;;;;;2.47;1.60;;;;;;;-145.69;61.32;52329.53;5115705;28;20906;-83
2024/02/13 01:12:06;;;;;;;8.00;1.70;;;;;;;-145.69;61.21;52341.41;5095910;28;20194;-84
2024/02/13 01:14:34;;;;;;;5.33;2.00;;;;;;;-145.69;60.59;52327.53;5105381;28;20201;-84
2024/02/13 01:17:00;;;;;;;2.97;1.50;;;;;;;-145.69;61.17;52333.47;5115744;28;20205;-83
2024/02/13 01:19:27;;;;;;;6.17;1.57;;;;;;;-145.69;61.08;52353.28;5116114;28;20592;-84
2024/02/13 01:21:53;;;;;;;3.43;1.50;;;;;;;-145.69;60.87;52353.28;5115058;28;20205;-83
2024/02/13 01:24:20;;;;;;;4.13;1.67;;;;;;;-145.69;60.85;52327.53;5115977;28;20197;-84
2024/02/13 01:26:46;;;;;;;3.77;1.50;;;;;;;-145.69;60.54;52357.25;5115840;28;20258;-84
2024/02/13 01:29:13;;;;;;;2.37;1.47;;;;;;;-145.69;60.75;52321.59;5114922;28;20209;-83
2024/02/13 01:31:41;;;;;;;5.03;1.60;;;;;;;-145.69;60.57;52335.47;5116115;28;20204;-83
2024/02/13 01:34:08;;;;;;;8.90;1.80;;;;;;;-145.69;60.63;52341.41;5115804;28;20198;-83
2024/02/13 01:36:35;;;;;;;2.43;1.40;;;;;;;-145.69;60.83;52369.13;5115665;28;20208;-83
2024/02/13 01:39:03;;;;;;;4.43;1.80;;;;;;;-145.69;60.44;52357.25;5115544;28;20666;-83
2024/02/13 01:41:30;;;;;;;4.30;1.57;;;;;;;-145.69;60.66;52329.53;5115158;28;20205;-83
2024/02/13 01:43:56;;;;;;;3.50;1.50;;;;;;;-145.69;60.47;52319.63;5115143;28;20288;-82
2024/02/13 01:46:26;;;;;;;5.37;1.30;;;;;;;-145.69;60.64;52333.47;5115586;28;20204;-82
2024/02/13 01:48:56;;;;;;;2.43;1.60;;;;;;;-145.69;60.87;52333.47;5115078;28;20233;-82
2024/02/13 01:51:27;;;;;;;5.83;1.67;;;;;;;-145.69;61.37;52343.38;5115183;27;20189;-82
2024/02/13 01:53:54;;;;;;;7.00;1.87;;;;;;;-145.69;61.71;52337.44;5115185;28;20209;-82
2024/02/13 01:56:24;;;;;;;5.67;1.63;;;;;;;-145.69;61.04;52341.41;5115273;28;20548;-82
2024/02/13 01:58:52;;;;;;;3.00;1.67;;;;;;;-145.69;61.25;52331.50;5115248;28;20228;-82
2024/02/13 02:01:18;;;;;;;5.90;1.83;;;;;;;-145.69;61.23;52345.38;5114885;28;20229;-82
2024/02/13 02:03:45;;;;;;;5.83;1.63;;;;;;;-145.69;61.21;52333.47;5115226;28;20213;-82
2024/02/13 02:06:15;;;;;;;4.60;1.73;;;;;;;-145.69;61.28;52357.25;5114551;28;20208;-82
2024/02/13 02:08:43;;;;;;;8.63;1.80;;;;;;;-145.69;61.31;52327.53;5114489;28;20200;-82
2024/02/13 02:11:10;;;;;;;7.27;2.10;;;;;;;-145.69;61.35;52361.22;5094733;28;20233;-82
2024/02/13 02:13:37;;;;;;;6.90;1.87;;;;;;;-145.69;61.10;52371.13;5103902;28;20197;-82
2024/02/13 02:16:06;;;;;;;8.57;2.47;;;;;;;-145.69;61.11;52313.69;5114765;28;20712;-82
2024/02/13 02:18:33;;;;;;;5.43;1.83;;;;;;;-145.69;60.70;52361.22;5114912;27;20217;-82
2024/02/13 02:21:00;;;;;;;4.17;1.70;;;;;;;-145.69;61.02;52345.38;5114622;28;20220;-82
2024/02/13 02:23:27;;;;;;;3.27;1.47;;;;;;;-145.69;61.11;52333.47;5114873;28;20198;-82
2024/02/13 02:25:55;;;;;;;7.10;1.40;;;;;;;-145.69;61.33;52361.22;5114712;27;20201;-83
2024/02/13 02:28:24;;;;;;;7.17;1.60;;;;;;;-145.69;61.14;52343.38;5115062;28;20224;-81
2024/02/13 02:30:53;;;;;;;2.17;1.43;;;;;;;-145.69;60.68;52325.56;5114697;27;20201;-82
2024/02/13 02:33:25;;;;;;;6.50;1.37;;;;;;;-145.69;61.26;52317.66;5114742;28;20205;-82
2024/02/13 02:35:54;;;;;;;4.87;1.60;;;;;;;-145.69;60.58;52361.22;5114553;27;20560;-82
2024/02/13 02:38:25;;;;;;;4.23;1.50;;;;;;;-145.69;60.92;52343.38;5114870;28;20206;-82
2024/02/13 02:40:51;;;;;;;5.50;1.60;;;;;;;-145.69;61.00;52339.44;5114251;28;20225;-81
2024/02/13 02:43:26;;;;;;;4.07;1.80;;;;;;;-145.69;60.51;52305.75;5113895;28;20201;-81
2024/02/13 02:45:52;;;;;;;3.77;1.50;;;;;;;-145.69;60.54;52345.38;5114188;28;20199;-82
2024/02/13 02:48:21;;;;;;;2.70;1.57;;;;;;;-145.69;61.01;52353.28;5113795;28;20225;-82
2024/02/13 02:50:53;;;;;;;2.83;1.40;;;;;;;-145.69;60.55;52349.31;5114069;28;20197;-83
2024/02/13 02:53:23;;;;;;;6.20;1.67;;;;;;;-145.69;60.93;52315.66;5113775;28;20193;-82
2024/02/13 02:55:54;;;;;;;7.60;1.80;;;;;;;-145.69;60.83;52335.47;5114203;28;20231;-82
2024/02/13 02:58:34;;;;;;;2.93;1.23;;;;;;;-145.69;60.81;52349.31;5114155;28;20194;-82
2024/02/13 03:01:02;;;;;;;6.93;1.40;;;;;;;-145.69;60.89;52313.69;5113769;27;20571;-82
2024/02/13 03:03:31;;;;;;;3.87;1.50;;;;;;;-145.69;60.24;52349.31;5114238;28;20251;-81
2024/02/13 03:05:58;;;;;;;5.13;2.23;;;;;;;-145.69;60.50;52327.53;5114085;28;20197;-82
2024/02/13 03:08:29;;;;;;;7.37;1.60;;;;;;;-145.69;60.48;52349.31;5113995;28;20209;-82
2024/02/13 03:10:58;;;;;;;4.87;1.70;;;;;;;-145.69;60.18;52285.97;5112981;27;20197;-82
2024/02/13 03:13:25;;;;;;;6.67;2.20;;;;;;;-145.69;60.67;52321.59;5113554;28;20644;-82
2024/02/13 03:16:04;;;;;;;7.60;1.50;;;;;;;-145.69;60.73;52317.66;5113794;28;20225;-81
2024/02/13 03:18:35;;;;;;;5.87;1.53;;;;;;;-145.69;60.46;52329.53;5113069;28;20680;-82
2024/02/13 03:21:05;;;;;;;4.70;1.43;;;;;;;-145.69;60.65;52349.31;5113184;28;20225;-82
2024/02/13 03:23:31;;;;;;;6.97;1.40;;;;;;;-145.69;60.82;52361.22;5113686;28;20237;-82
2024/02/13 03:26:00;;;;;;;1.90;1.23;;;;;;;-145.69;60.85;52337.44;5113231;28;20204;-82
2024/02/13 03:28:26;;;;;;;5.03;1.63;;;;;;;-145.69;61.11;52319.63;5113868;28;20267;-81
2024/02/13 03:31:01;;;;;;;10.80;2.03;;;;;;;-145.69;61.84;52349.31;5113133;28;20563;-82
2024/02/13 03:33:28;;;;;;;5.63;1.60;;;;;;;-145.69;61.69;52339.44;5113355;28;20677;-82
2024/02/13 03:35:55;;;;;;;10.10;2.20;;;;;;;-145.69;61.26;52349.31;5113443;27;20282;-81
2024/02/13 03:38:21;;;;;;;2.33;1.40;;;;;;;-145.69;61.27;52337.44;5113139;28;20206;-82
2024/02/13 03:40:50;;;;;;;3.50;1.57;;;;;;;-145.69;61.36;52384.97;5113298;28;20221;-82
2024/02/13 03:43:16;;;;;;;4.63;1.43;;;;;;;-145.69;61.87;52359.22;5113221;27;20200;-82
2024/02/13 03:45:45;;;;;;;6.33;1.40;;;;;;;-145.69;61.85;52333.47;5113334;28;20220;-82
2024/02/13 03:48:13;;;;;;;3.10;1.20;;;;;;;-145.69;62.32;52349.31;5112954;27;20237;-82
2024/02/13 03:50:42;;;;;;;4.67;1.47;;;;;;;-145.69;62.39;52333.47;5113153;28;20212;-82
2024/02/13 03:53:12;;;;;;;10.57;1.83;;;;;;;-145.69;62.14;52341.41;5112812;28;20282;-82
2024/02/13 03:55:49;;;;;;;4.17;1.70;;;;;;;-145.69;62.06;52392.91;5113141;28;20209;-82
2024/02/13 03:58:16;;;;;;;6.20;1.60;;;;;;;-145.69;62.29;52357.25;5112762;28;20257;-82
2024/02/13 04:00:44;;;;;;;3.60;1.50;;;;;;;-145.69;62.96;52371.13;5113030;28;20265;-82
2024/02/13 04:03:16;;;;;;;4.20;1.40;;;;;;;-145.69;63.02;52398.84;5113131;28;20204;-81
2024/02/13 04:05:45;;;;;;;5.10;1.70;;;;;;;-145.69;62.88;52369.13;5113213;28;20652;-83
2024/02/13 04:08:14;;;;;;;5.13;1.63;;;;;;;-145.69;63.52;52373.09;5113095;28;20723;-83
2024/02/13 04:10:42;;;;;;;6.47;1.57;;;;;;;-145.69;64.78;52361.22;5112700;28;20251;-84
2024/02/13 04:13:09;;;;;;;4.53;1.40;;;;;;;-145.69;64.64;52388.94;5112437;28;20640;-83
2024/02/13 04:15:37;;;;;;;6.00;1.40;;;;;;;-145.69;64.78;52422.59;5112601;28;20201;-83
2024/02/13 04:18:04;;;;;;;8.00;1.77;;;;;;;-145.69;64.36;52381.00;5112965;28;20228;-82
2024/02/13 04:20:32;;;;;;;5.70;1.60;;;;;;;-145.69;64.56;52422.59;5112793;28;20702;-82
2024/02/13 04:22:59;;;;;;;4.00;1.70;;;;;;;-145.69;64.49;52363.19;5116408;28;20252;-83
2024/02/13 04:25:26;;;;;;;6.10;1.47;;;;;;;-145.69;65.71;52392.91;5117091;28;20205;-83
2024/02/13 04:27:53;;;;;;;6.93;1.50;;;;;;;-145.69;66.28;52369.13;5116924;28;20204;-82
2024/02/13 04:30:25;;;;;;;5.17;1.33;;;;;;;-145.69;66.23;52432.50;5117019;28;20216;-83
2024/02/13 04:32:54;;;;;;;2.33;1.50;;;;;;;-145.69;65.78;52373.09;5116526;28;20233;-84
2024/02/13 04:35:23;;;;;;;4.47;1.47;;;;;;;-145.69;65.33;52345.38;5116600;28;20209;-82
2024/02/13 04:37:54;;;;;;;9.47;1.63;;;;;;;-145.69;68.84;52400.81;5116858;28;20193;-83
2024/02/13 04:40:22;;;;;;;5.23;1.60;;;;;;;-145.69;67.56;52402.78;5116445;28;20200;-82
2024/02/13 04:42:49;;;;;;;9.40;1.60;;;;;;;-145.69;67.18;52392.91;5116150;28;20221;-82
2024/02/13 04:45:25;;;;;;;6.00;2.03;;;;;;;-145.69;67.80;52341.41;5116205;28;20205;-82
2024/02/13 04:47:54;;;;;;;3.13;1.40;;;;;;;-145.69;67.60;52369.13;5116658;28;20225;-82
2024/02/13 04:50:23;;;;;;;3.73;1.20;;;;;;;-145.69;68.87;52396.84;5116661;28;20712;-82
2024/02/13 04:52:51;;;;;;;7.27;1.77;;;;;;;-145.69;68.17;52361.22;5116561;28;20193;-81
2024/02/13 04:55:17;;;;;;;6.07;1.53;;;;;;;-145.69;68.03;52363.19;5116332;28;20644;-83
2024/02/13 04:57:44;;;;;;;4.30;1.53;;;;;;;-145.69;67.74;52402.78;5116470;28;20540;-83
2024/02/13 05:00:18;;;;;;;8.37;1.93;;;;;;;-145.69;68.38;52402.78;5116027;28;20282;-83
2024/02/13 05:02:46;;;;;;;6.90;1.50;;;;;;;-145.69;68.42;52361.22;5116309;28;20190;-83
2024/02/13 05:08:01;;;;;;;3.80;1.47;;;;;;;-145.69;68.25;52383.00;5116295;28;20197;-83
2024/02/13 05:10:27;;;;;;;4.27;1.30;;;;;;;-145.69;68.80;52377.06;5115975;28;20640;-84
2024/02/13 05:12:54;;;;;;;4.67;1.70;;;;;;;-145.69;70.28;52412.69;5115018;28;20639;-83
2024/02/13 05:15:21;;;;;;;5.20;1.43;;;;;;;-145.69;68.92;52384.97;5114971;28;20266;-83
2024/02/13 05:17:54;;;;;;;10.80;1.70;;;;;;;-145.69;68.72;52377.06;5113632;28;20201;-83
2024/02/13 05:20:20;;;;;;;7.93;1.40;;;;;;;-145.69;68.77;52410.72;5115974;28;20229;-83
2024/02/13 05:22:47;;;;;;;6.37;1.60;;;;;;;-145.69;68.22;52379.03;5115283;27;20694;-82
2024/02/13 05:25:16;;;;;;;2.87;1.33;;;;;;;-145.69;69.59;52384.97;5115906;27;20652;-81
2024/02/13 05:27:55;;;;;;;4.63;1.57;;;;;;;-145.69;69.00;52377.06;5115981;28;20197;-82
2024/02/13 05:30:22;;;;;;;3.67;1.63;;;;;;;-145.69;69.64;52398.84;5116026;28;20288;-82
2024/02/13 05:32:59;;;;;;;5.30;1.87;;;;;;;-145.69;69.13;52404.78;5115461;27;20205;-82
2024/02/13 05:35:26;;;;;;;6.27;1.73;;;;;;;-145.69;70.33;52388.94;5115933;28;20197;-83
2024/02/13 05:38:06;;;;;;;5.67;1.57;;;;;;;-145.69;69.22;52406.75;5115565;28;20604;-82
2024/02/13 05:40:36;;;;;;;10.50;1.50;;;;;;;-145.69;69.23;52412.69;5094862;28;20728;-83
2024/02/13 05:43:05;;;;;;;6.03;1.37;;;;;;;-145.69;69.90;52381.00;5102344;28;20189;-82
2024/02/13 05:45:33;;;;;;;6.83;1.60;;;;;;;-145.69;69.68;52357.25;5115298;28;20240;-82
2024/02/13 05:48:03;;;;;;;5.07;1.37;;;;;;;-145.69;68.72;52430.53;5115292;28;20269;-82
2024/02/13 05:50:43;;;;;;;3.40;1.20;;;;;;;-145.69;68.57;52428.53;5115438;28;20220;-82
2024/02/13 05:53:12;;;;;;;4.17;1.97;;;;;;;-145.69;68.83;52381.00;5115525;27;20278;-82
2024/02/13 05:55:42;;;;;;;8.82;2.10;;;;;;;-145.69;71.35;52371.13;5114943;28;20434;-82
2024/02/13 05:58:15;;;;;;;3.77;1.40;;;;;;;-145.69;69.47;52446.38;5114731;28;20193;-81
2024/02/13 06:00:42;;;;;;;3.40;1.43;;;;;;;-145.69;69.94;52416.66;5115133;27;20216;-82
2024/02/13 06:03:11;;;;;;;6.07;1.27;;;;;;;-145.69;70.20;52377.06;5115242;28;20644;-82
2024/02/13 06:05:46;;;;;;;5.73;1.97;;;;;;;-145.69;71.25;52418.63;5115351;28;20250;-81
2024/02/13 06:08:13;;;;;;;6.97;1.57;;;;;;;-145.69;71.54;52388.94;5115979;27;20197;-81
2024/02/13 06:10:41;;;;;;;13.03;1.77;;;;;;;-145.69;70.63;52392.91;5114927;28;20254;-82
2024/02/13 06:13:09;;;;;;;3.87;1.63;;;;;;;-145.69;70.68;52384.97;5114891;28;20194;-82
2024/02/13 06:15:38;;;;;;;8.53;2.60;;;;;;;-145.69;70.57;52420.63;5114529;28;20668;-82
2024/02/13 06:18:05;;;;;;;3.87;1.10;;;;;;;-145.69;70.31;52416.66;5114515;28;20201;-81
2024/02/13 06:20:33;;;;;;;6.03;1.93;;;;;;;-145.69;70.67;52373.09;5114804;28;20247;-82
2024/02/13 06:23:03;;;;;;;7.77;1.83;;;;;;;-145.69;70.17;52436.47;5114964;28;20555;-82
2024/02/13 06:25:30;;;;;;;5.00;1.47;;;;;;;-145.69;70.78;52442.41;5114544;28;20560;-81
2024/02/13 06:27:58;;;;;;;9.40;1.90;;;;;;;-145.69;70.97;52404.78;5114958;28;20197;-81
2024/02/13 06:30:24;;;;;;;7.23;1.83;;;;;;;-145.69;70.82;52400.81;5114718;28;20200;-82
2024/02/13 06:32:51;;;;;;;2.37;1.50;;;;;;;-145.69;70.39;52400.81;5114724;27;20273;-82
2024/02/13 06:35:24;;;;;;;6.20;2.23;;;;;;;-145.69;70.65;52365.16;5114714;28;20247;-81
2024/02/13 06:37:52;;;;;;;3.80;1.60;;;;;;;-145.69;70.53;52400.81;5114317;28;20197;-82
2024/02/13 06:40:22;;;;;;;7.10;2.15;;;;;;;-145.69;72.52;52384.97;5113981;28;20525;-81
2024/02/13 06:42:52;;;;;;;4.00;1.80;;;;;;;-145.69;71.69;52388.94;5114270;27;20224;-81
2024/02/13 06:45:21;;;;;;;8.03;2.27;;;;;;;-145.69;71.87;52388.94;5114432;28;20193;-81
2024/02/13 06:47:50;;;;;;;12.30;2.30;;;;;;;-145.69;70.85;52381.00;5114143;28;20197;-82
2024/02/13 06:50:20;;;;;;;8.20;2.43;;;;;;;-145.69;71.15;52386.97;5114276;28;20622;-82
2024/02/13 06:52:51;;;;;;;9.90;2.30;;;;;;;-145.69;71.02;52381.00;5114138;28;20229;-81
2024/02/13 06:55:18;;;;;;;5.90;1.90;;;;;;;-145.69;70.79;52383.00;5113908;27;20201;-81
2024/02/13 06:57:45;;;;;;;4.47;1.80;;;;;;;-145.69;70.87;52383.00;5114282;27;20204;-81
2024/02/13 07:00:14;;;;;;;7.90;2.07;;;;;;;-145.69;70.97;52404.78;5113015;28;20202;-81
2024/02/13 07:02:48;;;;;;;9.27;1.90;;;;;;;-145.69;70.75;52412.69;5113752;28;20752;-81
2024/02/13 07:05:27;;;;;;;9.83;1.70;;;;;;;-145.69;70.83;52398.84;5114258;28;20220;-82
2024/02/13 07:07:56;;;;;;;10.77;2.07;;;;;;;-145.69;70.68;52353.28;5113585;28;20198;-81
2024/02/13 07:10:23;;;;;;;8.80;1.93;;;;;;;-145.69;70.65;52388.94;5113920;28;20295;-82
2024/02/13 07:12:49;;;;;;;4.63;2.30;;;;;;;-145.69;71.01;52428.53;5113460;28;20193;-82
2024/02/13 07:15:16;;;;;;;12.50;2.27;;;;;;;-145.69;70.99;52373.09;5112710;28;20197;-82
2024/02/13 07:17:44;;;;;;;15.13;2.13;;;;;;;-145.69;70.84;52412.69;5113355;28;20202;-82
2024/02/13 07:20:14;;;;;;;4.60;1.87;;;;;;;-145.69;70.73;52392.91;5113468;27;20197;-82
2024/02/13 07:22:43;;;;;;;6.37;1.77;;;;;;;-145.69;71.15;52349.31;5113452;27;20233;-81
2024/02/13 07:25:15;;;;;;;8.13;1.93;;;;;;;-145.69;70.89;52384.97;5113442;28;20208;-82
2024/02/13 07:27:42;;;;;;;3.90;1.50;;;;;;;-145.69;70.68;52404.78;5113831;28;20237;-82
2024/02/13 07:30:10;;;;;;;3.50;1.63;;;;;;;-145.69;70.90;52390.91;5113512;28;20220;-82
2024/02/13 07:32:39;;;;;;;6.43;1.50;;;;;;;-145.69;70.79;52369.13;5112874;27;20695;-81
2024/02/13 07:35:09;;;;;;;11.47;1.87;;;;;;;-145.69;71.21;52365.16;5113090;28;20250;-81
2024/02/13 07:37:38;;;;;;;8.40;1.90;;;;;;;-145.69;70.86;52359.22;5113341;28;20280;-82
2024/02/13 07:40:08;;;;;;;7.10;2.03;;;;;;;-145.69;70.80;52404.78;5113155;28;20201;-82
2024/02/13 07:42:35;;;;;;;4.47;1.60;;;;;;;-145.69;70.61;52404.78;5113275;28;20224;-81
2024/02/13 07:45:06;;;;;;;11.53;1.60;;;;;;;-145.69;70.68;52398.84;5112776;28;20201;-82
2024/02/13 07:47:44;;;;;;;10.60;2.10;;;;;;;-145.69;71.44;52398.84;5112477;28;20707;-81
2024/02/13 07:50:24;;;;;;;5.43;1.73;;;;;;;-145.69;71.30;52388.94;5113182;28;20283;-81
2024/02/13 07:53:06;;;;;;;7.57;1.83;;;;;;;-145.69;70.97;52347.34;5113045;27;20193;-80
2024/02/13 07:55:40;;;;;;;10.07;2.20;;;;;;;-145.69;71.65;52384.97;5113000;28;20235;-81
2024/02/13 07:58:09;;;;;;;6.40;1.57;;;;;;;-145.69;71.82;52377.06;5112859;27;20715;-81
2024/02/13 08:00:39;;;;;;;7.10;1.70;;;;;;;-145.69;72.02;52369.13;5112581;27;20637;-80
2024/02/13 08:03:12;;;;;;;5.50;1.80;;;;;;;-145.69;71.76;52394.88;5112393;27;20307;-80
2024/02/13 08:05:45;;;;;;;7.53;1.60;;;;;;;-145.69;72.10;52412.69;5133621;27;20429;-80
2024/02/13 08:08:13;;;;;;;4.07;1.87;;;;;;;-145.69;71.67;52355.28;5133694;28;20197;-81
2024/02/13 08:10:46;;;;;;;8.37;1.77;;;;;;;-145.69;72.16;52390.91;5133199;27;20308;-81
2024/02/13 08:13:12;;;;;;;6.53;1.80;;;;;;;-145.69;71.91;52383.00;5133667;28;20249;-80
2024/02/13 08:15:52;;;;;;;5.73;1.83;;;;;;;-145.69;71.52;52357.25;5113564;28;20201;-81
2024/02/13 08:18:19;;;;;;;5.97;1.70;;;;;;;-145.69;71.69;52400.81;5112636;28;20193;-81
2024/02/13 08:20:48;;;;;;;4.77;1.53;;;;;;;-145.69;71.58;52396.84;5113018;27;20661;-81
2024/02/13 08:23:21;;;;;;;2.83;1.40;;;;;;;-145.69;71.87;52400.81;5112753;28;20270;-81
2024/02/13 08:25:55;;;;;;;7.23;1.90;;;;;;;-145.69;72.33;52400.81;5112498;27;20723;-80
2024/02/13 08:28:27;;;;;;;6.73;1.63;;;;;;;-145.69;71.86;52375.06;5112835;28;20574;-80
2024/02/13 08:30:57;;;;;;;6.20;1.97;;;;;;;-145.69;72.52;52369.13;5112599;28;20194;-80
2024/02/13 08:33:23;;;;;;;6.67;1.80;;;;;;;-145.69;71.89;52396.84;5112344;28;20660;-81
2024/02/13 08:36:02;;;;;;;7.30;2.47;;;;;;;-145.69;72.40;52381.00;5112336;28;20201;-81
2024/02/13 08:38:28;;;;;;;5.07;1.60;;;;;;;-145.69;72.31;52386.97;5112809;28;20292;-81
2024/02/13 08:41:00;;;;;;;6.33;1.57;;;;;;;-145.69;71.95;52381.00;5112654;28;20820;-81
2024/02/13 08:43:29;;;;;;;8.23;2.10;;;;;;;-145.69;71.47;52367.16;5112086;28;20691;-81
2024/02/13 08:45:55;;;;;;;4.97;1.37;;;;;;;-145.69;71.92;52400.81;5112379;28;20563;-80
2024/02/13 08:48:32;;;;;;;6.57;1.60;;;;;;;-145.69;71.92;52343.38;5112184;28;20581;-81
2024/02/13 08:51:04;;;;;;;4.73;2.03;;;;;;;-145.69;71.80;52375.06;5112689;28;20197;-82
2024/02/13 08:53:36;;;;;;;8.37;1.80;;;;;;;-145.69;71.76;52361.22;5112456;28;20254;-81
2024/02/13 08:56:06;;;;;;;5.07;1.47;;;;;;;-145.69;71.72;52384.97;5112653;28;20206;-81
2024/02/13 08:58:53;;;;;;;6.13;1.47;;;;;;;-145.69;71.96;52355.28;5112661;27;20620;-80
2024/02/13 09:01:20;;;;;;;3.77;1.53;;;;;;;-145.69;71.99;52357.25;5112304;27;20683;-81
2024/02/13 09:03:51;;;;;;;12.97;5.00;;;;;;;-145.69;71.59;52386.97;5112557;28;20249;-81
2024/02/13 09:06:26;;;;;;;9.37;2.00;;;;;;;-145.69;71.59;52396.84;5112215;28;20244;-80
2024/02/13 09:09:08;;;;;;;8.70;1.70;;;;;;;-145.69;69.85;52359.22;5113513;28;20197;-81
2024/02/13 09:11:39;;;;;;;2.50;1.37;;;;;;;-145.69;69.95;52331.50;5116311;27;20289;-81
2024/02/13 09:14:09;;;;;;;9.67;1.90;;;;;;;-145.69;70.06;52353.28;5115440;28;20202;-81
2024/02/13 09:16:40;;;;;;;13.67;1.70;;;;;;;-145.69;68.69;52363.19;5116005;28;20251;-80
2024/02/13 09:19:07;;;;;;;8.07;1.70;;;;;;;-145.69;69.20;52359.22;5115203;28;20296;-81
2024/02/13 09:21:36;;;;;;;6.13;1.50;;;;;;;-145.69;69.36;52347.34;5115614;28;20224;-82
2024/02/13 09:24:04;;;;;;;6.20;1.60;;;;;;;-145.69;65.87;52341.41;5116079;28;20200;-81
2024/02/13 09:26:43;;;;;;;7.27;1.80;;;;;;;-145.69;66.11;52341.41;5115887;28;20279;-81
2024/02/13 09:29:17;;;;;;;7.20;1.67;;;;;;;-145.69;66.06;52333.47;5114280;28;20586;-80
2024/02/13 09:31:54;;;;;;;3.97;1.50;;;;;;;-145.69;65.10;52361.22;5115993;28;20288;-80
2024/02/13 09:34:27;;;;;;;6.60;1.87;;;;;;;-145.69;63.96;52365.16;5116049;28;20197;-79
2024/02/13 09:36:57;;;;;;;3.60;1.60;;;;;;;-145.69;64.63;52357.25;5115978;28;20198;-81
2024/02/13 09:39:34;;;;;;;3.90;1.60;;;;;;;-145.69;62.63;52321.59;5116144;28;20628;-80
2024/02/13 09:42:03;;;;;;;8.47;2.37;;;;;;;-145.69;61.96;52335.47;5114464;28;20651;-80
2024/02/13 09:44:33;;;;;;;4.20;1.77;;;;;;;-145.69;59.76;52337.44;5095410;28;20255;-81
2024/02/13 09:47:04;;;;;;;2.87;1.37;;;;;;;-145.69;59.79;52343.38;5095599;28;20202;-79
2024/02/13 09:49:33;;;;;;;2.13;1.10;;;;;;;-145.69;60.23;52345.38;5095047;28;20234;-82
2024/02/13 09:52:12;;;;;;;4.37;1.40;;;;;;;-145.69;59.39;52333.47;5095376;28;20210;-81
2024/02/13 09:54:44;;;;;;;4.33;1.33;;;;;;;-145.69;58.00;52355.28;5095364;28;20194;-81
2024/02/13 09:57:11;;;;;;;4.33;1.23;;;;;;;-145.69;56.99;52327.53;5095117;28;20281;-82
2024/02/13 09:59:50;;;;;;;4.00;1.10;;;;;;;-145.69;54.25;52347.34;5112036;27;20564;-81
2024/02/13 10:02:20;;;;;;;3.83;1.00;;;;;;;-145.69;53.39;52329.53;5115230;28;20231;-81
2024/02/13 10:04:50;;;;;;;3.37;1.37;;;;;;;-145.69;52.04;52351.31;5112084;28;20197;-82
2024/02/13 10:07:25;;;;;;;2.90;1.07;;;;;;;-145.69;51.13;52349.31;5104317;28;20201;-83
2024/02/13 10:09:58;;;;;;;1.10;0.80;;;;;;;-145.69;49.71;52325.56;5094891;28;20656;-81
2024/02/13 10:12:27;;;;;;;2.03;0.90;;;;;;;-145.69;48.82;52307.75;5095124;28;20228;-80
2024/02/13 10:15:00;;;;;;;4.37;0.93;;;;;;;-145.69;47.83;52323.59;5094946;28;20206;-81
2024/02/13 10:17:28;;;;;;;5.47;1.10;;;;;;;-145.69;48.72;52349.31;5098201;28;20227;-81
2024/02/13 10:19:56;;;;;;;4.67;1.13;;;;;;;-145.69;48.05;52315.66;5114617;28;20571;-81
2024/02/13 10:22:26;;;;;;;6.83;1.10;;;;;;;-145.69;48.24;52305.75;5114882;28;20228;-81
2024/02/13 10:24:54;;;;;;;8.33;1.20;;;;;;;-145.69;47.85;52301.81;5115295;28;20205;-81
2024/02/13 10:27:24;;;;;;;2.30;0.87;;;;;;;-145.69;47.35;52283.97;5114953;28;20205;-82
2024/02/13 10:29:51;;;;;;;4.93;1.13;;;;;;;-145.69;45.24;52289.91;5114685;28;20289;-82
2024/02/13 10:32:20;;;;;;;1.37;0.70;;;;;;;-145.69;45.52;52299.81;5114734;28;20292;-81
2024/02/13 10:34:47;;;;;;;7.30;1.10;;;;;;;-145.69;44.38;52285.97;5114872;28;20288;-81
2024/02/13 10:37:17;;;;;;;3.40;1.10;;;;;;;-145.69;45.50;52293.88;5114454;28;20205;-81
2024/02/13 10:39:47;;;;;;;2.10;0.80;;;;;;;-145.69;45.67;52289.91;5114908;28;20224;-82
2024/02/13 10:42:23;;;;;;;4.53;0.90;;;;;;;-145.69;43.71;52339.44;5114521;28;20201;-82
2024/02/13 10:44:52;;;;;;;2.23;0.80;;;;;;;-145.69;43.46;52289.91;5114527;28;20741;-82
2024/02/13 10:47:25;;;;;;;2.40;0.93;;;;;;;-145.69;43.94;52285.97;5114207;28;20198;-81
2024/02/13 10:49:53;;;;;;;2.60;0.80;;;;;;;-145.69;42.43;52282.00;5114499;28;20229;-81
2024/02/13 10:52:20;;;;;;;2.20;0.70;;;;;;;-145.69;42.25;52276.06;5114564;28;20224;-81
2024/02/13 10:54:55;;;;;;;3.03;1.00;;;;;;;-145.69;43.66;52299.81;5114437;28;20656;-83
2024/02/13 10:57:25;;;;;;;5.97;1.30;;;;;;;-145.69;43.73;52301.81;5114542;28;20207;-81
2024/02/13 10:59:54;;;;;;;3.37;0.87;;;;;;;-145.69;44.60;52268.13;5114060;27;20719;-81
2024/02/13 11:02:31;;;;;;;6.53;1.00;;;;;;;-145.69;42.62;52323.59;5114093;28;20537;-81
2024/02/13 11:04:58;;;;;;;4.40;1.20;;;;;;;-145.69;41.44;52260.22;5114182;28;20288;-81
2024/02/13 11:07:28;;;;;;;2.50;0.77;;;;;;;-145.69;42.05;52274.06;5114049;28;20201;-81
2024/02/13 11:09:57;;;;;;;3.28;1.00;;;;;;;-145.69;42.16;52270.13;5113007;28;20463;-81
2024/02/13 11:12:30;;;;;;;2.07;0.80;;;;;;;-145.69;41.80;52289.91;5114090;28;20197;-81
2024/02/13 11:15:09;;;;;;;2.60;0.77;;;;;;;-145.69;42.00;52274.06;5113933;28;20196;-81
2024/02/13 11:17:53;;;;;;;2.53;0.77;;;;;;;-145.69;43.88;52262.19;5113455;28;20185;-81
2024/02/13 11:20:23;;;;;;;4.30;1.03;;;;;;;-145.69;43.36;52246.34;5114119;28;20292;-81
2024/02/13 11:22:53;;;;;;;2.63;1.07;;;;;;;-145.69;41.42;52262.19;5113710;27;20217;-81
2024/02/13 11:25:27;;;;;;;2.90;1.00;;;;;;;-145.69;41.53;52285.97;5113965;28;20197;-82
2024/02/13 11:27:57;;;;;;;2.67;1.20;;;;;;;-145.69;41.18;52254.28;5113685;28;20208;-81
2024/02/13 11:30:28;;;;;;;6.47;1.10;;;;;;;-145.69;41.83;52206.75;5113793;28;20216;-81